sensor_id;sensor_type;location;lat;lon;timestamp;P1;durP1;ratioP1;P2;durP2;ratioP2
48040;SDS011;33815;48.386;11.738;2022-08-19T00:00:14;11.03;;;8.80;;
48040;SDS011;33815;48.386;11.738;2022-08-19T00:02:40;12.73;;;8.93;;
48040;SDS011;33815;48.386;11.738;2022-08-19T00:05:07;8.80;;;7.88;;
48040;SDS011;33815;48.386;11.738;2022-08-19T00:07:34;7.97;;;7.18;;
48040;SDS011;33815;48.386;11.738;2022-08-19T00:09:59;7.82;;;7.03;;
48040;SDS011;33815;48.386;11.738;2022-08-19T00:12:25;8.43;;;7.30;;
48040;SDS011;33815;48.386;11.738;2022-08-19T00:14:50;7.88;;;7.13;;
48040;SDS011;33815;48.386;11.738;2022-08-19T00:17:15;8.00;;;7.17;;
48040;SDS011;33815;48.386;11.738;2022-08-19T00:19:41;9.77;;;7.15;;
48040;SDS011;33815;48.386;11.738;2022-08-19T00:22:06;7.75;;;6.95;;
48040;SDS011;33815;48.386;11.738;2022-08-19T00:24:33;7.32;;;6.63;;
48040;SDS011;33815;48.386;11.738;2022-08-19T00:27:00;6.60;;;5.80;;
48040;SDS011;33815;48.386;11.738;2022-08-19T00:29:27;7.60;;;6.15;;
48040;SDS011;33815;48.386;11.738;2022-08-19T00:31:53;6.20;;;5.60;;
48040;SDS011;33815;48.386;11.738;2022-08-19T00:34:20;6.80;;;5.75;;
48040;SDS011;33815;48.386;11.738;2022-08-19T00:36:46;6.38;;;5.78;;
48040;SDS011;33815;48.386;11.738;2022-08-19T00:39:13;5.88;;;5.38;;
48040;SDS011;33815;48.386;11.738;2022-08-19T00:41:40;6.43;;;5.85;;
48040;SDS011;33815;48.386;11.738;2022-08-19T00:44:14;7.30;;;5.72;;
48040;SDS011;33815;48.386;11.738;2022-08-19T00:46:51;6.28;;;5.53;;
48040;SDS011;33815;48.386;11.738;2022-08-19T00:51:55;5.78;;;5.18;;
48040;SDS011;33815;48.386;11.738;2022-08-19T00:54:43;6.43;;;5.82;;
48040;SDS011;33815;48.386;11.738;2022-08-19T00:57:10;6.40;;;5.57;;
48040;SDS011;33815;48.386;11.738;2022-08-19T00:59:40;6.05;;;5.45;;
48040;SDS011;33815;48.386;11.738;2022-08-19T01:02:07;7.00;;;5.75;;
48040;SDS011;33815;48.386;11.738;2022-08-19T01:04:33;7.40;;;6.25;;
48040;SDS011;33815;48.386;11.738;2022-08-19T01:06:58;7.07;;;6.35;;
48040;SDS011;33815;48.386;11.738;2022-08-19T01:09:26;7.50;;;6.55;;
48040;SDS011;33815;48.386;11.738;2022-08-19T01:11:51;7.73;;;6.03;;
48040;SDS011;33815;48.386;11.738;2022-08-19T01:14:17;8.27;;;6.57;;
48040;SDS011;33815;48.386;11.738;2022-08-19T01:16:43;8.05;;;6.50;;
48040;SDS011;33815;48.386;11.738;2022-08-19T01:19:18;9.60;;;7.35;;
48040;SDS011;33815;48.386;11.738;2022-08-19T01:22:06;6.35;;;5.75;;
48040;SDS011;33815;48.386;11.738;2022-08-19T01:24:37;8.20;;;6.57;;
48040;SDS011;33815;48.386;11.738;2022-08-19T01:27:05;7.70;;;7.00;;
48040;SDS011;33815;48.386;11.738;2022-08-19T01:29:32;7.22;;;6.53;;
48040;SDS011;33815;48.386;11.738;2022-08-19T01:31:57;7.38;;;6.63;;
48040;SDS011;33815;48.386;11.738;2022-08-19T01:34:24;7.75;;;6.72;;
48040;SDS011;33815;48.386;11.738;2022-08-19T01:36:49;7.68;;;6.88;;
48040;SDS011;33815;48.386;11.738;2022-08-19T01:39:16;7.72;;;6.43;;
48040;SDS011;33815;48.386;11.738;2022-08-19T01:41:47;8.75;;;6.97;;
48040;SDS011;33815;48.386;11.738;2022-08-19T01:44:13;7.03;;;6.32;;
48040;SDS011;33815;48.386;11.738;2022-08-19T01:46:39;7.55;;;6.75;;
48040;SDS011;33815;48.386;11.738;2022-08-19T01:49:05;7.50;;;6.70;;
48040;SDS011;33815;48.386;11.738;2022-08-19T01:51:31;10.30;;;6.43;;
48040;SDS011;33815;48.386;11.738;2022-08-19T01:53:57;7.32;;;6.32;;
48040;SDS011;33815;48.386;11.738;2022-08-19T01:56:23;7.90;;;6.78;;
48040;SDS011;33815;48.386;11.738;2022-08-19T01:58:58;7.72;;;6.95;;
48040;SDS011;33815;48.386;11.738;2022-08-19T02:01:26;7.03;;;6.32;;
48040;SDS011;33815;48.386;11.738;2022-08-19T02:03:51;7.15;;;6.00;;
48040;SDS011;33815;48.386;11.738;2022-08-19T02:06:18;6.68;;;5.78;;
48040;SDS011;33815;48.386;11.738;2022-08-19T02:08:44;8.65;;;6.15;;
48040;SDS011;33815;48.386;11.738;2022-08-19T02:11:17;8.27;;;6.80;;
48040;SDS011;33815;48.386;11.738;2022-08-19T02:13:51;7.38;;;6.32;;
48040;SDS011;33815;48.386;11.738;2022-08-19T02:16:18;7.18;;;6.28;;
48040;SDS011;33815;48.386;11.738;2022-08-19T02:18:44;6.53;;;5.75;;
48040;SDS011;33815;48.386;11.738;2022-08-19T02:21:10;7.05;;;6.35;;
48040;SDS011;33815;48.386;11.738;2022-08-19T02:23:36;7.05;;;6.35;;
48040;SDS011;33815;48.386;11.738;2022-08-19T02:26:01;7.10;;;6.40;;
48040;SDS011;33815;48.386;11.738;2022-08-19T02:28:26;6.85;;;6.15;;
48040;SDS011;33815;48.386;11.738;2022-08-19T02:30:52;6.60;;;4.97;;
48040;SDS011;33815;48.386;11.738;2022-08-19T02:33:17;7.65;;;5.65;;
48040;SDS011;33815;48.386;11.738;2022-08-19T02:35:43;5.72;;;5.20;;
48040;SDS011;33815;48.386;11.738;2022-08-19T02:38:09;6.97;;;5.50;;
48040;SDS011;33815;48.386;11.738;2022-08-19T02:40:51;5.60;;;5.07;;
48040;SDS011;33815;48.386;11.738;2022-08-19T02:43:21;5.60;;;4.97;;
48040;SDS011;33815;48.386;11.738;2022-08-19T02:45:47;5.30;;;4.80;;
48040;SDS011;33815;48.386;11.738;2022-08-19T02:48:20;4.97;;;3.97;;
48040;SDS011;33815;48.386;11.738;2022-08-19T02:50:48;5.60;;;4.55;;
48040;SDS011;33815;48.386;11.738;2022-08-19T02:53:20;3.90;;;3.50;;
48040;SDS011;33815;48.386;11.738;2022-08-19T02:55:47;4.10;;;3.80;;
48040;SDS011;33815;48.386;11.738;2022-08-19T02:58:14;5.00;;;4.00;;
48040;SDS011;33815;48.386;11.738;2022-08-19T03:00:44;5.43;;;3.65;;
48040;SDS011;33815;48.386;11.738;2022-08-19T03:03:11;3.70;;;3.40;;
48040;SDS011;33815;48.386;11.738;2022-08-19T03:05:36;3.40;;;3.13;;
48040;SDS011;33815;48.386;11.738;2022-08-19T03:08:02;4.72;;;4.32;;
48040;SDS011;33815;48.386;11.738;2022-08-19T03:10:29;4.05;;;3.75;;
48040;SDS011;33815;48.386;11.738;2022-08-19T03:12:54;3.45;;;3.15;;
48040;SDS011;33815;48.386;11.738;2022-08-19T03:15:19;3.55;;;3.25;;
48040;SDS011;33815;48.386;11.738;2022-08-19T03:17:45;4.57;;;3.30;;
48040;SDS011;33815;48.386;11.738;2022-08-19T03:20:10;3.33;;;3.03;;
48040;SDS011;33815;48.386;11.738;2022-08-19T03:22:35;3.25;;;2.95;;
48040;SDS011;33815;48.386;11.738;2022-08-19T03:25:01;3.35;;;3.13;;
48040;SDS011;33815;48.386;11.738;2022-08-19T03:27:26;3.90;;;3.58;;
48040;SDS011;33815;48.386;11.738;2022-08-19T03:29:52;3.78;;;3.28;;
48040;SDS011;33815;48.386;11.738;2022-08-19T03:32:17;3.63;;;3.30;;
48040;SDS011;33815;48.386;11.738;2022-08-19T03:34:42;3.00;;;2.80;;
48040;SDS011;33815;48.386;11.738;2022-08-19T03:37:08;3.23;;;2.93;;
48040;SDS011;33815;48.386;11.738;2022-08-19T03:39:38;4.07;;;3.70;;
48040;SDS011;33815;48.386;11.738;2022-08-19T03:42:04;5.25;;;3.70;;
48040;SDS011;33815;48.386;11.738;2022-08-19T03:44:30;5.15;;;4.10;;
48040;SDS011;33815;48.386;11.738;2022-08-19T03:46:57;4.22;;;3.83;;
48040;SDS011;33815;48.386;11.738;2022-08-19T03:49:25;4.10;;;3.80;;
48040;SDS011;33815;48.386;11.738;2022-08-19T03:51:52;4.93;;;4.43;;
48040;SDS011;33815;48.386;11.738;2022-08-19T03:54:19;4.28;;;3.88;;
48040;SDS011;33815;48.386;11.738;2022-08-19T03:56:47;5.70;;;4.93;;
48040;SDS011;33815;48.386;11.738;2022-08-19T03:59:16;6.07;;;5.47;;
48040;SDS011;33815;48.386;11.738;2022-08-19T04:01:43;6.13;;;5.53;;
48040;SDS011;33815;48.386;11.738;2022-08-19T04:04:09;5.60;;;5.10;;
48040;SDS011;33815;48.386;11.738;2022-08-19T04:06:35;5.32;;;4.82;;
48040;SDS011;33815;48.386;11.738;2022-08-19T04:09:03;5.65;;;5.05;;
48040;SDS011;33815;48.386;11.738;2022-08-19T04:11:31;6.75;;;4.95;;
48040;SDS011;33815;48.386;11.738;2022-08-19T04:14:06;6.20;;;5.63;;
48040;SDS011;33815;48.386;11.738;2022-08-19T04:16:32;5.40;;;4.90;;
48040;SDS011;33815;48.386;11.738;2022-08-19T04:18:59;6.30;;;5.53;;
48040;SDS011;33815;48.386;11.738;2022-08-19T04:21:26;6.97;;;6.28;;
48040;SDS011;33815;48.386;11.738;2022-08-19T04:23:52;6.28;;;5.68;;
48040;SDS011;33815;48.386;11.738;2022-08-19T04:26:20;6.45;;;5.85;;
48040;SDS011;33815;48.386;11.738;2022-08-19T04:28:47;6.55;;;5.55;;
48040;SDS011;33815;48.386;11.738;2022-08-19T04:31:17;5.85;;;4.93;;
48040;SDS011;33815;48.386;11.738;2022-08-19T04:33:44;6.07;;;5.47;;
48040;SDS011;33815;48.386;11.738;2022-08-19T04:36:16;10.30;;;6.15;;
48040;SDS011;33815;48.386;11.738;2022-08-19T04:38:56;6.22;;;5.63;;
48040;SDS011;33815;48.386;11.738;2022-08-19T04:41:24;6.22;;;5.60;;
48040;SDS011;33815;48.386;11.738;2022-08-19T04:44:08;6.95;;;5.32;;
48040;SDS011;33815;48.386;11.738;2022-08-19T04:46:34;6.22;;;5.63;;
48040;SDS011;33815;48.386;11.738;2022-08-19T04:48:59;8.13;;;5.72;;
48040;SDS011;33815;48.386;11.738;2022-08-19T04:51:26;7.47;;;6.30;;
48040;SDS011;33815;48.386;11.738;2022-08-19T04:53:52;7.25;;;6.22;;
48040;SDS011;33815;48.386;11.738;2022-08-19T04:56:18;8.05;;;6.18;;
48040;SDS011;33815;48.386;11.738;2022-08-19T04:58:48;7.57;;;6.45;;
48040;SDS011;33815;48.386;11.738;2022-08-19T05:01:21;7.45;;;6.68;;
48040;SDS011;33815;48.386;11.738;2022-08-19T05:03:48;9.55;;;7.05;;
48040;SDS011;33815;48.386;11.738;2022-08-19T05:06:15;7.28;;;6.55;;
48040;SDS011;33815;48.386;11.738;2022-08-19T05:08:42;7.57;;;6.88;;
48040;SDS011;33815;48.386;11.738;2022-08-19T05:11:28;7.43;;;6.63;;
48040;SDS011;33815;48.386;11.738;2022-08-19T05:13:55;9.60;;;7.22;;
48040;SDS011;33815;48.386;11.738;2022-08-19T05:16:22;8.57;;;7.00;;
48040;SDS011;33815;48.386;11.738;2022-08-19T05:18:48;8.77;;;6.72;;
48040;SDS011;33815;48.386;11.738;2022-08-19T05:21:33;9.65;;;7.50;;
48040;SDS011;33815;48.386;11.738;2022-08-19T05:24:18;7.85;;;7.05;;
48040;SDS011;33815;48.386;11.738;2022-08-19T05:26:45;9.35;;;8.10;;
48040;SDS011;33815;48.386;11.738;2022-08-19T05:29:13;8.52;;;6.97;;
48040;SDS011;33815;48.386;11.738;2022-08-19T05:31:40;9.00;;;7.78;;
48040;SDS011;33815;48.386;11.738;2022-08-19T05:34:06;9.05;;;7.70;;
48040;SDS011;33815;48.386;11.738;2022-08-19T05:36:36;8.63;;;7.72;;
48040;SDS011;33815;48.386;11.738;2022-08-19T05:39:04;9.35;;;7.35;;
48040;SDS011;33815;48.386;11.738;2022-08-19T05:41:31;9.57;;;7.65;;
48040;SDS011;33815;48.386;11.738;2022-08-19T05:43:57;9.80;;;8.13;;
48040;SDS011;33815;48.386;11.738;2022-08-19T05:46:23;8.50;;;7.18;;
48040;SDS011;33815;48.386;11.738;2022-08-19T05:48:48;8.45;;;7.43;;
48040;SDS011;33815;48.386;11.738;2022-08-19T05:51:14;8.93;;;8.02;;
48040;SDS011;33815;48.386;11.738;2022-08-19T05:53:41;10.10;;;8.10;;
48040;SDS011;33815;48.386;11.738;2022-08-19T05:56:07;9.45;;;8.32;;
48040;SDS011;33815;48.386;11.738;2022-08-19T05:58:35;9.93;;;8.38;;
48040;SDS011;33815;48.386;11.738;2022-08-19T06:01:01;9.73;;;8.73;;
48040;SDS011;33815;48.386;11.738;2022-08-19T06:03:30;9.68;;;8.68;;
48040;SDS011;33815;48.386;11.738;2022-08-19T06:05:57;11.57;;;8.77;;
48040;SDS011;33815;48.386;11.738;2022-08-19T06:08:24;10.23;;;8.88;;
48040;SDS011;33815;48.386;11.738;2022-08-19T06:10:49;12.68;;;9.30;;
48040;SDS011;33815;48.386;11.738;2022-08-19T06:13:15;12.03;;;9.53;;
48040;SDS011;33815;48.386;11.738;2022-08-19T06:15:40;11.90;;;9.40;;
48040;SDS011;33815;48.386;11.738;2022-08-19T06:18:08;11.45;;;10.25;;
48040;SDS011;33815;48.386;11.738;2022-08-19T06:20:34;10.80;;;9.30;;
48040;SDS011;33815;48.386;11.738;2022-08-19T06:22:59;11.33;;;9.00;;
48040;SDS011;33815;48.386;11.738;2022-08-19T06:25:24;11.30;;;10.10;;
48040;SDS011;33815;48.386;11.738;2022-08-19T06:27:49;11.18;;;9.27;;
48040;SDS011;33815;48.386;11.738;2022-08-19T06:30:15;10.93;;;8.77;;
48040;SDS011;33815;48.386;11.738;2022-08-19T06:32:40;10.25;;;9.15;;
48040;SDS011;33815;48.386;11.738;2022-08-19T06:35:06;10.82;;;8.75;;
48040;SDS011;33815;48.386;11.738;2022-08-19T06:37:32;10.45;;;8.55;;
48040;SDS011;33815;48.386;11.738;2022-08-19T06:39:58;9.98;;;8.73;;
48040;SDS011;33815;48.386;11.738;2022-08-19T06:42:23;10.17;;;9.07;;
48040;SDS011;33815;48.386;11.738;2022-08-19T06:44:48;11.90;;;10.57;;
48040;SDS011;33815;48.386;11.738;2022-08-19T06:47:15;13.52;;;10.18;;
48040;SDS011;33815;48.386;11.738;2022-08-19T06:49:42;12.68;;;10.50;;
48040;SDS011;33815;48.386;11.738;2022-08-19T06:52:07;14.03;;;10.93;;
48040;SDS011;33815;48.386;11.738;2022-08-19T06:54:36;12.70;;;9.75;;
48040;SDS011;33815;48.386;11.738;2022-08-19T06:57:01;13.57;;;10.70;;
48040;SDS011;33815;48.386;11.738;2022-08-19T06:59:27;20.58;;;12.10;;
48040;SDS011;33815;48.386;11.738;2022-08-19T07:01:56;20.48;;;12.32;;
48040;SDS011;33815;48.386;11.738;2022-08-19T07:04:23;15.02;;;12.35;;
48040;SDS011;33815;48.386;11.738;2022-08-19T07:06:59;20.38;;;12.88;;
48040;SDS011;33815;48.386;11.738;2022-08-19T07:09:37;17.13;;;12.18;;
48040;SDS011;33815;48.386;11.738;2022-08-19T07:12:05;17.73;;;13.27;;
48040;SDS011;33815;48.386;11.738;2022-08-19T07:14:32;17.08;;;13.70;;
48040;SDS011;33815;48.386;11.738;2022-08-19T07:17:02;19.65;;;14.98;;
48040;SDS011;33815;48.386;11.738;2022-08-19T07:19:29;20.83;;;14.43;;
48040;SDS011;33815;48.386;11.738;2022-08-19T07:21:55;19.75;;;15.55;;
48040;SDS011;33815;48.386;11.738;2022-08-19T07:24:22;21.40;;;16.65;;
48040;SDS011;33815;48.386;11.738;2022-08-19T07:26:49;22.42;;;17.23;;
48040;SDS011;33815;48.386;11.738;2022-08-19T07:29:15;20.20;;;17.10;;
48040;SDS011;33815;48.386;11.738;2022-08-19T07:31:41;18.88;;;15.35;;
48040;SDS011;33815;48.386;11.738;2022-08-19T07:34:08;20.15;;;15.25;;
48040;SDS011;33815;48.386;11.738;2022-08-19T07:36:36;22.50;;;15.88;;
48040;SDS011;33815;48.386;11.738;2022-08-19T07:39:06;20.15;;;14.95;;
48040;SDS011;33815;48.386;11.738;2022-08-19T07:41:35;21.90;;;16.83;;
48040;SDS011;33815;48.386;11.738;2022-08-19T07:44:02;20.48;;;14.95;;
48040;SDS011;33815;48.386;11.738;2022-08-19T07:46:30;19.75;;;15.13;;
48040;SDS011;33815;48.386;11.738;2022-08-19T07:48:56;21.25;;;16.88;;
48040;SDS011;33815;48.386;11.738;2022-08-19T07:51:21;20.20;;;15.50;;
48040;SDS011;33815;48.386;11.738;2022-08-19T07:53:48;22.33;;;17.08;;
48040;SDS011;33815;48.386;11.738;2022-08-19T07:56:16;22.02;;;15.95;;
48040;SDS011;33815;48.386;11.738;2022-08-19T07:58:43;23.60;;;16.98;;
48040;SDS011;33815;48.386;11.738;2022-08-19T08:01:12;26.55;;;17.52;;
48040;SDS011;33815;48.386;11.738;2022-08-19T08:03:40;22.02;;;16.45;;
48040;SDS011;33815;48.386;11.738;2022-08-19T08:06:24;22.45;;;17.05;;
48040;SDS011;33815;48.386;11.738;2022-08-19T08:09:08;24.20;;;16.33;;
48040;SDS011;33815;48.386;11.738;2022-08-19T08:11:59;24.48;;;16.48;;
48040;SDS011;33815;48.386;11.738;2022-08-19T08:14:29;20.30;;;14.55;;
48040;SDS011;33815;48.386;11.738;2022-08-19T08:16:57;22.23;;;17.05;;
48040;SDS011;33815;48.386;11.738;2022-08-19T08:19:23;23.02;;;17.27;;
48040;SDS011;33815;48.386;11.738;2022-08-19T08:21:50;24.75;;;17.20;;
48040;SDS011;33815;48.386;11.738;2022-08-19T08:24:16;24.73;;;17.00;;
48040;SDS011;33815;48.386;11.738;2022-08-19T08:26:42;25.55;;;17.23;;
48040;SDS011;33815;48.386;11.738;2022-08-19T08:29:09;22.08;;;16.33;;
48040;SDS011;33815;48.386;11.738;2022-08-19T08:31:36;22.73;;;17.80;;
48040;SDS011;33815;48.386;11.738;2022-08-19T08:34:02;23.30;;;17.45;;
48040;SDS011;33815;48.386;11.738;2022-08-19T08:36:27;25.42;;;18.15;;
48040;SDS011;33815;48.386;11.738;2022-08-19T08:38:53;28.20;;;17.98;;
48040;SDS011;33815;48.386;11.738;2022-08-19T08:41:23;23.52;;;17.85;;
48040;SDS011;33815;48.386;11.738;2022-08-19T08:43:53;24.42;;;16.83;;
48040;SDS011;33815;48.386;11.738;2022-08-19T08:46:36;24.20;;;16.70;;
48040;SDS011;33815;48.386;11.738;2022-08-19T08:49:15;25.08;;;17.63;;
48040;SDS011;33815;48.386;11.738;2022-08-19T08:51:43;21.75;;;16.67;;
48040;SDS011;33815;48.386;11.738;2022-08-19T08:54:13;25.30;;;17.10;;
48040;SDS011;33815;48.386;11.738;2022-08-19T08:56:43;24.08;;;18.05;;
48040;SDS011;33815;48.386;11.738;2022-08-19T08:59:12;29.35;;;18.75;;
48040;SDS011;33815;48.386;11.738;2022-08-19T09:01:45;24.15;;;16.95;;
48040;SDS011;33815;48.386;11.738;2022-08-19T09:04:10;23.02;;;17.50;;
48040;SDS011;33815;48.386;11.738;2022-08-19T09:07:01;25.70;;;18.20;;
48040;SDS011;33815;48.386;11.738;2022-08-19T09:09:41;26.10;;;18.45;;
48040;SDS011;33815;48.386;11.738;2022-08-19T09:12:23;26.27;;;18.15;;
48040;SDS011;33815;48.386;11.738;2022-08-19T09:15:11;36.10;;;19.95;;
48040;SDS011;33815;48.386;11.738;2022-08-19T09:17:38;27.38;;;19.90;;
48040;SDS011;33815;48.386;11.738;2022-08-19T09:22:39;28.05;;;19.08;;
48040;SDS011;33815;48.386;11.738;2022-08-19T09:25:09;32.65;;;21.85;;
48040;SDS011;33815;48.386;11.738;2022-08-19T09:27:37;31.42;;;21.63;;
48040;SDS011;33815;48.386;11.738;2022-08-19T09:30:04;27.25;;;20.55;;
48040;SDS011;33815;48.386;11.738;2022-08-19T09:32:30;27.13;;;19.88;;
48040;SDS011;33815;48.386;11.738;2022-08-19T09:34:56;29.08;;;20.42;;
48040;SDS011;33815;48.386;11.738;2022-08-19T09:37:22;29.00;;;21.25;;
48040;SDS011;33815;48.386;11.738;2022-08-19T09:39:49;32.22;;;22.20;;
48040;SDS011;33815;48.386;11.738;2022-08-19T09:42:14;37.88;;;24.50;;
48040;SDS011;33815;48.386;11.738;2022-08-19T09:44:40;32.90;;;21.15;;
48040;SDS011;33815;48.386;11.738;2022-08-19T09:47:06;32.30;;;20.55;;
48040;SDS011;33815;48.386;11.738;2022-08-19T09:49:33;27.98;;;19.77;;
48040;SDS011;33815;48.386;11.738;2022-08-19T09:51:58;33.65;;;22.02;;
48040;SDS011;33815;48.386;11.738;2022-08-19T09:54:24;31.58;;;21.70;;
48040;SDS011;33815;48.386;11.738;2022-08-19T09:56:50;28.55;;;20.67;;
48040;SDS011;33815;48.386;11.738;2022-08-19T09:59:17;29.08;;;19.73;;
48040;SDS011;33815;48.386;11.738;2022-08-19T10:01:42;29.55;;;21.20;;
48040;SDS011;33815;48.386;11.738;2022-08-19T10:04:07;26.07;;;19.10;;
48040;SDS011;33815;48.386;11.738;2022-08-19T10:06:37;26.25;;;18.73;;
48040;SDS011;33815;48.386;11.738;2022-08-19T10:09:05;26.67;;;18.63;;
48040;SDS011;33815;48.386;11.738;2022-08-19T10:11:33;25.73;;;18.20;;
48040;SDS011;33815;48.386;11.738;2022-08-19T10:13:59;19.25;;;15.45;;
48040;SDS011;33815;48.386;11.738;2022-08-19T10:16:25;21.42;;;15.30;;
48040;SDS011;33815;48.386;11.738;2022-08-19T10:18:51;19.90;;;14.93;;
48040;SDS011;33815;48.386;11.738;2022-08-19T10:21:21;17.90;;;14.25;;
48040;SDS011;33815;48.386;11.738;2022-08-19T10:23:50;18.73;;;14.32;;
48040;SDS011;33815;48.386;11.738;2022-08-19T10:26:20;17.60;;;13.65;;
48040;SDS011;33815;48.386;11.738;2022-08-19T10:28:51;19.05;;;13.65;;
48040;SDS011;33815;48.386;11.738;2022-08-19T10:31:18;15.57;;;12.48;;
48040;SDS011;33815;48.386;11.738;2022-08-19T10:33:46;14.32;;;11.80;;
48040;SDS011;33815;48.386;11.738;2022-08-19T10:36:16;15.63;;;11.60;;
48040;SDS011;33815;48.386;11.738;2022-08-19T10:38:44;13.95;;;11.02;;
48040;SDS011;33815;48.386;11.738;2022-08-19T10:41:11;11.45;;;9.70;;
48040;SDS011;33815;48.386;11.738;2022-08-19T10:43:39;10.60;;;8.82;;
48040;SDS011;33815;48.386;11.738;2022-08-19T10:46:06;11.65;;;10.05;;
48040;SDS011;33815;48.386;11.738;2022-08-19T10:48:33;12.15;;;9.48;;
48040;SDS011;33815;48.386;11.738;2022-08-19T10:50:59;11.38;;;9.98;;
48040;SDS011;33815;48.386;11.738;2022-08-19T10:53:43;13.05;;;10.20;;
48040;SDS011;33815;48.386;11.738;2022-08-19T10:56:08;13.37;;;8.73;;
48040;SDS011;33815;48.386;11.738;2022-08-19T10:58:51;11.25;;;9.13;;
48040;SDS011;33815;48.386;11.738;2022-08-19T11:01:17;10.65;;;9.55;;
48040;SDS011;33815;48.386;11.738;2022-08-19T11:03:43;10.32;;;8.93;;
48040;SDS011;33815;48.386;11.738;2022-08-19T11:06:10;12.85;;;10.98;;
48040;SDS011;33815;48.386;11.738;2022-08-19T11:08:36;10.93;;;9.52;;
48040;SDS011;33815;48.386;11.738;2022-08-19T11:11:07;9.93;;;8.75;;
48040;SDS011;33815;48.386;11.738;2022-08-19T11:13:34;12.32;;;10.45;;
48040;SDS011;33815;48.386;11.738;2022-08-19T11:16:06;13.23;;;10.65;;
48040;SDS011;33815;48.386;11.738;2022-08-19T11:18:39;11.85;;;10.45;;
48040;SDS011;33815;48.386;11.738;2022-08-19T11:21:08;10.38;;;9.05;;
48040;SDS011;33815;48.386;11.738;2022-08-19T11:23:37;13.45;;;10.48;;
48040;SDS011;33815;48.386;11.738;2022-08-19T11:26:02;12.93;;;11.43;;
48040;SDS011;33815;48.386;11.738;2022-08-19T11:28:27;12.88;;;11.02;;
48040;SDS011;33815;48.386;11.738;2022-08-19T11:30:53;12.95;;;11.63;;
48040;SDS011;33815;48.386;11.738;2022-08-19T11:33:18;11.73;;;10.13;;
48040;SDS011;33815;48.386;11.738;2022-08-19T11:35:44;13.33;;;11.13;;
48040;SDS011;33815;48.386;11.738;2022-08-19T11:38:09;13.77;;;12.13;;
48040;SDS011;33815;48.386;11.738;2022-08-19T11:40:36;16.13;;;13.40;;
48040;SDS011;33815;48.386;11.738;2022-08-19T11:43:01;12.80;;;11.23;;
48040;SDS011;33815;48.386;11.738;2022-08-19T11:45:27;13.45;;;11.68;;
48040;SDS011;33815;48.386;11.738;2022-08-19T11:47:54;15.32;;;13.10;;
48040;SDS011;33815;48.386;11.738;2022-08-19T11:50:20;13.88;;;11.77;;
48040;SDS011;33815;48.386;11.738;2022-08-19T11:52:45;14.60;;;12.02;;
48040;SDS011;33815;48.386;11.738;2022-08-19T11:55:12;11.85;;;10.68;;
48040;SDS011;33815;48.386;11.738;2022-08-19T11:57:38;12.40;;;11.02;;
48040;SDS011;33815;48.386;11.738;2022-08-19T12:00:05;13.38;;;10.57;;
48040;SDS011;33815;48.386;11.738;2022-08-19T12:02:32;12.55;;;11.25;;
48040;SDS011;33815;48.386;11.738;2022-08-19T12:04:57;12.70;;;10.70;;
48040;SDS011;33815;48.386;11.738;2022-08-19T12:07:22;11.23;;;9.50;;
48040;SDS011;33815;48.386;11.738;2022-08-19T12:09:48;11.75;;;9.63;;
48040;SDS011;33815;48.386;11.738;2022-08-19T12:12:13;9.82;;;8.40;;
48040;SDS011;33815;48.386;11.738;2022-08-19T12:14:39;8.70;;;7.78;;
48040;SDS011;33815;48.386;11.738;2022-08-19T12:17:04;8.43;;;7.00;;
48040;SDS011;33815;48.386;11.738;2022-08-19T12:19:32;7.43;;;6.72;;
48040;SDS011;33815;48.386;11.738;2022-08-19T12:21:59;8.52;;;6.72;;
48040;SDS011;33815;48.386;11.738;2022-08-19T12:24:26;8.15;;;6.43;;
48040;SDS011;33815;48.386;11.738;2022-08-19T12:26:51;6.25;;;5.65;;
48040;SDS011;33815;48.386;11.738;2022-08-19T12:29:18;5.90;;;5.30;;
48040;SDS011;33815;48.386;11.738;2022-08-19T12:31:43;5.70;;;5.07;;
48040;SDS011;33815;48.386;11.738;2022-08-19T12:34:08;5.37;;;4.83;;
48040;SDS011;33815;48.386;11.738;2022-08-19T12:36:34;4.45;;;4.05;;
48040;SDS011;33815;48.386;11.738;2022-08-19T12:38:59;3.45;;;3.15;;
48040;SDS011;33815;48.386;11.738;2022-08-19T12:41:25;3.15;;;2.80;;
48040;SDS011;33815;48.386;11.738;2022-08-19T12:43:50;3.67;;;2.65;;
48040;SDS011;33815;48.386;11.738;2022-08-19T12:46:16;2.75;;;2.55;;
48040;SDS011;33815;48.386;11.738;2022-08-19T12:48:42;3.20;;;3.00;;
48040;SDS011;33815;48.386;11.738;2022-08-19T12:51:10;2.65;;;2.42;;
48040;SDS011;33815;48.386;11.738;2022-08-19T12:53:40;3.60;;;3.25;;
48040;SDS011;33815;48.386;11.738;2022-08-19T12:56:06;2.97;;;2.58;;
48040;SDS011;33815;48.386;11.738;2022-08-19T12:58:32;2.50;;;2.30;;
48040;SDS011;33815;48.386;11.738;2022-08-19T13:00:59;3.22;;;2.92;;
48040;SDS011;33815;48.386;11.738;2022-08-19T13:03:30;3.42;;;2.60;;
48040;SDS011;33815;48.386;11.738;2022-08-19T13:05:56;1.97;;;1.87;;
48040;SDS011;33815;48.386;11.738;2022-08-19T13:08:21;2.88;;;2.55;;
48040;SDS011;33815;48.386;11.738;2022-08-19T13:10:47;1.83;;;1.60;;
48040;SDS011;33815;48.386;11.738;2022-08-19T13:13:12;1.27;;;1.17;;
48040;SDS011;33815;48.386;11.738;2022-08-19T13:15:39;1.58;;;1.48;;
48040;SDS011;33815;48.386;11.738;2022-08-19T13:18:07;1.95;;;1.75;;
48040;SDS011;33815;48.386;11.738;2022-08-19T13:20:35;1.25;;;1.15;;
48040;SDS011;33815;48.386;11.738;2022-08-19T13:23:01;1.58;;;1.33;;
48040;SDS011;33815;48.386;11.738;2022-08-19T13:25:26;1.50;;;1.40;;
48040;SDS011;33815;48.386;11.738;2022-08-19T13:27:52;1.43;;;1.33;;
48040;SDS011;33815;48.386;11.738;2022-08-19T13:30:18;1.45;;;1.35;;
48040;SDS011;33815;48.386;11.738;2022-08-19T13:33:03;1.80;;;1.70;;
48040;SDS011;33815;48.386;11.738;2022-08-19T13:35:42;3.28;;;2.60;;
48040;SDS011;33815;48.386;11.738;2022-08-19T13:38:10;3.22;;;2.55;;
48040;SDS011;33815;48.386;11.738;2022-08-19T13:40:37;2.88;;;2.67;;
48040;SDS011;33815;48.386;11.738;2022-08-19T13:43:03;2.88;;;2.58;;
48040;SDS011;33815;48.386;11.738;2022-08-19T13:45:30;3.22;;;2.80;;
48040;SDS011;33815;48.386;11.738;2022-08-19T13:47:58;2.10;;;2.00;;
48040;SDS011;33815;48.386;11.738;2022-08-19T13:50:25;2.30;;;1.90;;
48040;SDS011;33815;48.386;11.738;2022-08-19T13:52:54;2.30;;;2.10;;
48040;SDS011;33815;48.386;11.738;2022-08-19T13:55:20;2.33;;;2.13;;
48040;SDS011;33815;48.386;11.738;2022-08-19T13:57:49;2.70;;;2.20;;
48040;SDS011;33815;48.386;11.738;2022-08-19T14:00:16;2.03;;;1.92;;
48040;SDS011;33815;48.386;11.738;2022-08-19T14:02:43;1.52;;;1.42;;
48040;SDS011;33815;48.386;11.738;2022-08-19T14:05:10;1.77;;;1.27;;
48040;SDS011;33815;48.386;11.738;2022-08-19T14:07:36;1.30;;;1.17;;
48040;SDS011;33815;48.386;11.738;2022-08-19T14:10:06;1.77;;;1.67;;
48040;SDS011;33815;48.386;11.738;2022-08-19T14:12:33;1.80;;;1.67;;
48040;SDS011;33815;48.386;11.738;2022-08-19T14:14:59;1.88;;;1.52;;
48040;SDS011;33815;48.386;11.738;2022-08-19T14:17:24;1.73;;;1.63;;
48040;SDS011;33815;48.386;11.738;2022-08-19T14:19:55;1.50;;;1.40;;
48040;SDS011;33815;48.386;11.738;2022-08-19T14:22:25;2.58;;;2.38;;
48040;SDS011;33815;48.386;11.738;2022-08-19T14:24:51;2.60;;;2.10;;
48040;SDS011;33815;48.386;11.738;2022-08-19T14:27:16;3.90;;;2.70;;
48040;SDS011;33815;48.386;11.738;2022-08-19T14:29:41;2.07;;;1.80;;
48040;SDS011;33815;48.386;11.738;2022-08-19T14:32:06;1.95;;;1.85;;